Latest Weather Observations for Douglas River

IDD60801

Issued at 7:31 am CST Saturday 23 May 2015 (issued every 30 minutes, with the page automatically refreshed every 10 minutes)

About weather observations | Map of weather stations | Latest weather observations for NT | Other Formats
Station Details ID: 014901 Name: DOUGLAS RIVER Lat: -13.83 Lon: 131.19 Height: 42.8 m
Data from the previous 72 hours. | See also: Recent months at Douglas River
Date/Time
CST
Temp
°C
App
Temp
°C
Dew
Point
Rel
Hum
%
Delta-T
°C
Wind Press
QNH
hPa
Press
MSL
hPa
Rain
since 9 am
mm
Dir
 
Spd
km/h
Gust
km/h
Spd
kts
Gust
kts
23/07:30am 17.4 14.8 9.4 59 4.2 SE 13 15 7 8 1017.8 1017.6 -
23/07:00am 17.3 14.8 9.7 61 4.0 SE 13 15 7 8 1017.6 1017.4 -
23/06:30am 17.1 14.9 10.7 66 3.4 SE 13 15 7 8 1017.1 1016.9 -
23/06:00am 17.7 15.5 10.8 64 3.7 SE 13 15 7 8 1017.0 1016.8 -
23/05:30am 18.1 16.5 11.7 66 3.5 SE 11 13 6 7 1016.7 1016.5 -
23/05:00am 18.2 16.2 11.6 65 3.6 SSE 13 15 7 8 1016.5 1016.3 -
23/04:30am 18.4 17.0 12.3 67 3.4 SSE 11 15 6 8 1016.4 1016.2 -
23/04:00am 19.4 18.6 12.8 65 3.7 SSE 9 11 5 6 1016.3 1016.1 -
23/03:30am 20.1 19.7 13.1 64 4.0 SE 7 9 4 5 1016.2 1016.0 -
23/03:00am 19.8 18.8 13.5 67 3.6 SE 11 13 6 7 1016.0 1015.8 0.0
23/02:30am 19.7 18.7 14.5 72 3.0 SSE 13 17 7 9 1015.9 1015.7 -
23/02:00am 19.7 19.1 14.5 72 3.0 SSE 11 13 6 7 1015.9 1015.7 -
23/01:30am 20.1 19.8 14.4 69 3.3 SE 9 11 5 6 1016.0 1015.8 -
23/01:00am 20.6 21.0 14.8 69 3.4 SSE 6 7 3 4 1015.8 1015.6 -
23/12:30am 21.5 21.7 14.3 63 4.2 ESE 6 9 3 5 1015.9 1015.7 -
23/12:00am 21.5 21.3 14.7 65 4.0 SE 9 11 5 6 1016.1 1015.9 -
 
Date/Time
CST
Temp
°C
App
Temp
°C
Dew
Point
Rel
Hum
%
Delta-T
°C
Wind Press
QNH
hPa
Press
MSL
hPa
Rain
since 9 am
mm
Dir
 
Spd
km/h
Gust
km/h
Spd
kts
Gust
kts
22/11:30pm 21.9 22.3 15.2 65 4.0 SSE 7 7 4 4 1016.3 1016.1 -
22/11:00pm 21.9 22.9 15.4 66 3.9 SE 4 7 2 4 1016.4 1016.2 -
22/10:30pm 22.1 22.7 15.4 65 4.0 SE 6 7 3 4 1016.4 1016.2 -
22/10:00pm 22.6 23.0 15.2 63 4.4 SE 7 9 4 5 1016.2 1016.0 -
22/09:30pm 23.2 23.2 15.2 60 4.8 SE 9 11 5 6 1016.1 1015.9 -
22/09:00pm 23.5 23.1 15.1 59 5.0 SE 11 11 6 6 1015.9 1015.7 -
22/08:30pm 24.3 23.7 14.7 55 5.7 SE 11 13 6 7 1015.7 1015.5 -
22/08:00pm 25.1 24.9 14.7 52 6.2 SSE 9 11 5 6 1015.4 1015.2 -
22/07:30pm 25.7 25.5 14.7 50 6.6 SSE 9 11 5 6 1015.0 1014.8 -
22/07:00pm 26.5 25.9 14.7 48 7.1 SSE 11 13 6 7 1014.6 1014.4 -
22/06:30pm 27.7 27.4 14.4 44 8.0 SSE 9 11 5 6 1014.1 1013.9 -
22/06:00pm 29.9 28.3 14.0 37 9.6 SE 15 20 8 11 1013.9 1013.7 -
22/05:30pm 31.8 28.9 12.9 31 11.3 SE 20 26 11 14 1013.7 1013.5 -
22/04:00pm 33.4 30.9 13.4 29 12.1 SSE 19 28 10 15 1013.1 1012.9 0.0
22/03:30pm 33.4 30.8 13.2 29 12.2 SE 19 26 10 14 1013.4 1013.2 0.0
22/03:00pm 33.4 31.5 14.3 31 11.7 SSE 17 28 9 15 1013.6 1013.4 0.0
22/02:30pm 33.4 32.0 14.6 32 11.6 ESE 15 26 8 14 1013.7 1013.5 0.0
22/02:00pm 33.1 31.5 15.0 33 11.2 SE 17 33 9 18 1013.9 1013.7 0.0
22/01:30pm 32.7 31.1 14.9 34 11.0 SE 17 28 9 15 1014.3 1014.1 0.0
22/01:00pm 32.3 31.0 15.8 37 10.3 ESE 17 28 9 15 1014.9 1014.7 0.0
22/12:30pm 31.0 30.7 17.3 43 8.7 ESE 15 24 8 13 1015.4 1015.2 0.0
22/12:00pm 31.2 31.2 18.1 45 8.4 SE 15 24 8 13 1016.0 1015.8 0.0
22/11:30am 30.9 31.9 19.4 50 7.5 SE 13 20 7 11 1016.3 1016.1 0.0
22/11:00am 28.8 30.2 19.6 57 6.0 SE 11 17 6 9 1016.7 1016.5 0.0
22/10:30am 29.5 30.5 19.4 54 6.6 SE 13 19 7 10 1016.9 1016.7 0.0
22/10:00am 28.6 28.2 18.1 53 6.7 SE 17 24 9 13 1017.2 1017.0 0.0
22/09:30am 26.2 26.9 18.9 64 4.7 SSE 13 17 7 9 1017.4 1017.2 0.0
22/09:00am 24.3 25.6 20.1 77 2.7 SE 13 19 7 10 1017.2 1017.0 0.0
22/08:30am 23.6 26.7 21.0 85 1.7 SSE 6 7 3 4 1016.8 1016.6 0.0
22/08:00am 21.1 24.7 19.8 92 0.8 CALM 0 0 0 0 1016.6 1016.4 0.0
22/07:30am 20.5 22.8 19.4 93 0.7 ESE 6 9 3 5 1016.6 1016.4 0.0
22/07:00am 20.6 23.3 19.5 93 0.7 ESE 4 7 2 4 1016.4 1016.2 0.0
22/06:30am 20.1 22.0 19.0 93 0.7 E 7 9 4 5 1016.2 1016.0 0.0
22/06:00am 20.0 21.9 19.0 94 0.6 E 7 11 4 6 1015.9 1015.7 0.0
22/05:30am 20.2 21.8 19.2 94 0.6 SE 9 13 5 7 1015.6 1015.4 0.0
22/05:00am 18.8 20.3 17.7 93 0.7 ESE 6 9 3 5 1015.4 1015.2 0.0
22/04:30am 20.2 23.5 19.1 93 0.7 CALM 0 0 0 0 1015.1 1014.9 0.0
22/04:00am 20.9 23.1 19.2 90 1.1 N 6 9 3 5 1015.0 1014.8 0.0
22/03:30am 20.2 23.0 18.9 92 0.8 NE 2 6 1 3 1015.4 1015.2 0.0
22/03:00am 18.8 21.5 17.7 93 0.7 CALM 0 0 0 0 1015.1 1014.9 0.0
22/02:30am 19.1 21.8 17.8 92 0.8 CALM 0 0 0 0 1015.0 1014.8 0.0
22/02:00am 20.5 23.7 18.9 90 1.0 CALM 0 0 0 0 1015.1 1014.9 0.0
22/01:30am 21.2 23.8 19.3 89 1.2 N 4 7 2 4 1015.3 1015.1 0.0
22/01:00am 20.3 23.5 18.9 92 0.9 CALM 0 4 0 2 1015.3 1015.1 0.0
22/12:30am 20.2 23.1 18.1 88 1.3 CALM 0 0 0 0 1015.3 1015.1 0.0
22/12:00am 21.7 24.7 19.3 86 1.5 NW 2 7 1 4 1015.4 1015.2 0.0
 
Date/Time
CST
Temp
°C
App
Temp
°C
Dew
Point
Rel
Hum
%
Delta-T
°C
Wind Press
QNH
hPa
Press
MSL
hPa
Rain
since 9 am
mm
Dir
 
Spd
km/h
Gust
km/h
Spd
kts
Gust
kts
21/11:30pm 22.7 26.1 19.4 81 2.1 CALM 0 0 0 0 1015.2 1015.0 0.0
21/11:00pm 24.3 26.6 19.8 76 2.9 NW 7 11 4 6 1015.2 1015.0 0.0
21/10:30pm 24.3 26.5 19.5 74 3.1 NW 7 11 4 6 1015.2 1015.0 0.0
21/10:00pm 24.3 25.9 18.3 69 3.8 NW 7 13 4 7 1015.0 1014.8 0.0
21/09:30pm 25.1 27.9 17.9 64 4.5 CALM 0 0 0 0 1014.9 1014.7 0.0
21/09:00pm 25.1 28.0 18.3 66 4.3 CALM 0 0 0 0 1014.8 1014.6 0.0
21/08:30pm 25.5 28.2 17.7 62 4.9 CALM 0 0 0 0 1014.4 1014.2 0.0
21/08:00pm 26.8 29.5 17.8 57 5.7 CALM 0 0 0 0 1013.9 1013.7 0.0
21/07:30pm 27.0 29.9 18.2 58 5.6 CALM 0 0 0 0 1013.6 1013.4 0.0
21/07:00pm 28.0 30.8 17.9 54 6.4 CALM 0 0 0 0 1013.3 1013.1 0.0
21/06:30pm 29.2 30.6 17.3 48 7.5 E 6 7 3 4 1013.1 1012.9 0.0
21/06:00pm 31.4 32.0 15.8 39 9.7 ESE 7 9 4 5 1012.9 1012.7 0.0
21/05:30pm 32.2 31.8 15.3 36 10.5 ESE 11 15 6 8 1012.7 1012.5 0.0
21/05:00pm 33.6 32.2 13.5 29 12.2 ESE 13 20 7 11 1012.4 1012.2 0.0
21/04:30pm 34.4 33.7 14.3 30 12.4 ESE 11 15 6 8 1012.1 1011.9 0.0
21/04:00pm 34.9 35.6 15.5 31 12.2 NE 6 11 3 6 1012.0 1011.8 0.0
21/03:30pm 34.4 33.4 14.5 30 12.3 E 13 19 7 10 1012.2 1012.0 0.0
21/03:00pm 34.4 34.7 16.0 33 11.6 ENE 9 15 5 8 1012.4 1012.2 0.0
21/02:30pm 35.2 35.4 15.7 31 12.3 ENE 9 19 5 10 1012.9 1012.7 0.0
21/02:00pm 34.7 34.5 15.8 32 11.9 E 11 24 6 13 1013.2 1013.0 0.0
21/01:30pm 35.2 36.8 18.2 36 11.1 E 7 17 4 9 1013.8 1013.6 0.0
21/01:00pm 34.7 35.0 17.1 35 11.3 E 11 22 6 12 1014.3 1014.1 0.0
21/12:30pm 34.2 35.1 17.6 37 10.7 ENE 9 15 5 8 1014.8 1014.6 0.0
21/12:00pm 33.9 36.1 19.3 42 9.6 NNW 6 9 3 5 1015.2 1015.0 0.0
21/11:30am 32.8 35.4 20.0 47 8.5 E 6 11 3 6 1015.7 1015.5 0.0
21/11:00am 31.4 34.1 20.6 52 7.2 N 7 15 4 8 1016.0 1015.8 0.0
21/10:30am 30.9 33.5 20.5 54 6.9 N 7 11 4 6 1016.3 1016.1 0.0
21/10:00am 29.7 33.1 21.0 59 5.8 NNE 4 11 2 6 1016.5 1016.3 0.0
21/09:30am 27.9 32.3 21.3 67 4.4 CALM 0 0 0 0 1016.6 1016.4 0.0
21/09:20am 26.9 31.1 21.0 70 3.9 CALM 0 0 0 0 1016.6 - 0.0
21/09:00am 24.9 29.3 21.3 80 2.4 CALM 0 0 0 0 1016.6 1016.4 0.0
21/08:30am 21.9 26.0 20.7 93 0.8 CALM 0 0 0 0 1016.4 1016.2 0.0
21/08:00am 20.0 23.4 19.4 96 0.4 CALM 0 0 0 0 1016.1 1015.9 0.0
21/07:30am 19.4 22.6 18.9 97 0.3 CALM 0 0 0 0 1015.8 1015.6 0.0
21/07:00am 19.0 22.0 18.5 97 0.3 CALM 0 0 0 0 1015.3 1015.1 0.0
21/06:30am 17.5 19.8 16.7 95 0.5 CALM 0 0 0 0 1015.1 1014.9 0.0
21/06:00am 20.3 23.5 19.7 96 0.4 NE 2 6 1 3 1015.1 1014.9 0.0
21/05:30am 20.0 23.4 19.4 96 0.4 CALM 0 0 0 0 1014.9 1014.7 0.0
21/05:00am 19.5 22.7 18.9 96 0.4 CALM 0 0 0 0 1014.6 1014.4 0.0
21/04:30am 19.8 23.2 19.3 97 0.3 CALM 0 0 0 0 1014.4 1014.2 0.0
21/04:00am 19.9 22.4 19.1 95 0.5 NE 4 7 2 4 1014.4 1014.2 0.0
21/03:30am 20.3 23.7 19.4 95 0.6 CALM 0 0 0 0 1014.4 1014.2 0.0
21/03:00am 20.6 23.7 19.5 93 0.7 S 2 7 1 4 1014.3 1014.1 0.0
21/02:30am 22.1 25.0 20.6 91 1.0 NW 6 11 3 6 1014.2 1014.0 0.0
21/02:00am 22.5 25.3 20.5 88 1.3 NNW 6 9 3 5 1014.6 1014.4 0.0
21/01:30am 21.2 24.8 19.8 92 0.9 CALM 0 0 0 0 1014.9 1014.7 0.0
21/01:00am 23.2 25.9 20.6 85 1.7 NW 7 11 4 6 1015.0 1014.8 0.0
21/12:30am 23.6 26.5 20.7 84 1.9 NNW 6 7 3 4 1015.2 1015.0 0.0
21/12:00am 23.5 26.8 20.7 84 1.8 N 4 7 2 4 1015.4 1015.2 0.0
 
Date/Time
CST
Temp
°C
App
Temp
°C
Dew
Point
Rel
Hum
%
Delta-T
°C
Wind Press
QNH
hPa
Press
MSL
hPa
Rain
since 9 am
mm
Dir
 
Spd
km/h
Gust
km/h
Spd
kts
Gust
kts
20/11:30pm 23.9 26.8 20.7 82 2.1 NNW 6 9 3 5 1015.6 1015.4 0.0
20/11:00pm 23.7 27.4 20.8 84 1.9 N 2 7 1 4 1015.6 1015.4 0.0
20/10:30pm 24.1 27.8 20.7 81 2.2 NW 2 7 1 4 1015.3 1015.1 0.0
20/10:00pm 25.2 29.4 20.9 77 2.8 CALM 0 6 0 3 1015.2 1015.0 0.0
20/09:30pm 26.0 28.1 20.2 70 3.8 NW 9 13 5 7 1014.9 1014.7 0.0
20/09:00pm 26.4 28.6 18.4 61 5.1 ESE 4 9 2 5 1014.7 1014.5 0.0
20/08:30pm 25.8 29.0 18.9 65 4.4 CALM 0 0 0 0 1014.1 1013.9 0.0
20/08:00pm 24.7 28.4 19.9 74 3.1 CALM 0 0 0 0 1013.7 1013.5 0.0
20/07:30pm 27.0 30.1 18.6 60 5.4 CALM 0 0 0 0 1013.2 1013.0 0.0
20/07:00pm 29.0 31.5 17.3 49 7.4 CALM 0 0 0 0 1012.9 1012.7 0.0
20/06:30pm 29.7 32.6 18.2 50 7.4 CALM 0 6 0 3 1012.7 1012.5 0.0
20/06:00pm 32.0 33.8 18.4 44 8.8 W 6 7 3 4 1012.5 1012.3 0.0
20/05:30pm 33.6 34.4 16.4 35 10.9 SW 7 15 4 8 1012.2 1012.0 0.0
20/05:00pm 34.1 34.4 16.0 34 11.4 S 9 17 5 9 1011.8 1011.6 0.0
20/04:30pm 34.8 35.1 16.0 32 11.9 SW 9 17 5 9 1011.7 1011.5 0.0
20/04:00pm 34.6 34.9 15.9 32 11.8 S 9 15 5 8 1011.7 1011.5 0.0
20/03:30pm 32.9 34.3 17.7 40 9.8 SE 7 11 4 6 1012.0 1011.8 0.0
20/03:00pm 33.3 33.6 17.0 37 10.4 SE 11 15 6 8 1012.1 1011.9 0.0
20/02:30pm 35.0 35.9 16.7 33 11.7 NNW 7 13 4 7 1012.4 1012.2 0.0
20/02:00pm 34.9 37.0 18.0 36 11.0 NNW 4 7 2 4 1012.7 1012.5 0.0
20/01:30pm 34.8 36.7 18.6 38 10.6 NNE 6 11 3 6 1013.2 1013.0 0.0
20/01:00pm 33.4 35.5 19.3 43 9.3 WSW 7 13 4 7 1013.8 1013.6 0.0
20/12:30pm 32.0 34.3 19.9 48 8.0 WNW 7 11 4 6 1014.6 1014.4 0.0
20/12:00pm 31.3 34.8 20.3 52 7.3 NNW 2 9 1 5 1015.0 1014.8 0.0
20/11:30am 31.3 33.9 20.1 51 7.4 NNW 6 11 3 6 1015.5 1015.3 0.0
20/11:00am 31.0 33.8 20.5 53 7.0 N 6 9 3 5 1015.8 1015.6 0.0
20/10:30am 29.5 32.8 21.4 61 5.4 NNW 6 11 3 6 1016.1 1015.9 0.0
20/10:00am 28.9 33.1 22.4 68 4.4 NW 4 9 2 5 1016.3 1016.1 0.0
20/09:30am 27.4 31.4 23.1 77 2.9 W 7 9 4 5 1016.4 1016.2 0.0
20/09:00am 25.3 31.0 23.7 91 1.1 CALM 0 0 0 0 1016.2 1016.0 0.0
20/08:30am 23.6 28.9 23.0 96 0.4 CALM 0 0 0 0 1015.9 1015.7 0.0
20/08:00am 22.1 26.6 21.6 97 0.3 CALM 0 0 0 0 1015.6 1015.4 0.0

Other Formats:

Comma delimited format used in spreadsheet applications
http://www.bom.gov.au/fwo/IDD60801/IDD60801.94128.axf

JavaScript Object Notation format (JSON) in row-major order
http://www.bom.gov.au/fwo/IDD60801/IDD60801.94128.json